Time;durP1;ratioP1;P1;durP2;ratioP2;P2;SDS_P1;SDS_P2;PMS_P1;PMS_P2;Temp;Humidity;BMP_temperature;BMP_pressure;BME280_temperature;BME280_humidity;BME280_pressure;Samples;Min_cycle;Max_cycle;Signal;HPM_P1;HPM_P2
2022/03/27 00:02:10;;;;;;;28.83;13.55;;;12.20;99.90;;;;;;5055472;28;20516;-78
2022/03/27 00:04:36;;;;;;;29.45;14.02;;;12.10;99.90;;;;;;5054999;28;20031;-84
2022/03/27 00:07:02;;;;;;;25.75;12.70;;;12.10;99.90;;;;;;5057321;28;20430;-73
2022/03/27 00:09:27;;;;;;;16.90;11.05;;;12.10;99.90;;;;;;5059818;28;20432;-80
2022/03/27 00:11:53;;;;;;;25.88;11.40;;;12.00;99.90;;;;;;5058805;28;20029;-73
2022/03/27 00:14:19;;;;;;;21.38;11.23;;;11.90;99.90;;;;;;5056653;28;20029;-80
2022/03/27 00:16:45;;;;;;;17.15;10.45;;;11.80;99.90;;;;;;5055292;28;20086;-80
2022/03/27 00:19:11;;;;;;;20.08;10.93;;;11.50;99.90;;;;;;5055217;28;20053;-82
2022/03/27 00:21:38;;;;;;;19.67;10.57;;;11.30;99.90;;;;;;5053749;28;20029;-72
2022/03/27 00:24:04;;;;;;;19.33;11.93;;;11.40;99.90;;;;;;5055686;28;20496;-81
2022/03/27 00:26:30;;;;;;;18.75;11.15;;;11.40;99.90;;;;;;5054164;28;20048;-76
2022/03/27 00:28:58;;;;;;;20.60;11.98;;;11.50;99.90;;;;;;5055312;28;20036;-75
2022/03/27 00:31:23;;;;;;;26.02;12.63;;;11.60;99.90;;;;;;5045483;28;20025;-80
2022/03/27 00:33:49;;;;;;;19.67;11.82;;;11.40;99.90;;;;;;5054287;28;20043;-81
2022/03/27 00:36:16;;;;;;;27.63;11.77;;;11.40;99.90;;;;;;5054581;28;20465;-80
2022/03/27 00:38:45;;;;;;;19.67;11.45;;;11.30;99.90;;;;;;5051930;28;20150;-71
2022/03/27 00:41:14;;;;;;;20.90;11.38;;;11.30;99.90;;;;;;5054840;28;20032;-79
2022/03/27 00:43:40;;;;;;;19.80;10.90;;;11.30;99.90;;;;;;5035799;28;20033;-77
2022/03/27 00:46:09;;;;;;;21.50;10.95;;;11.20;99.90;;;;;;5035108;28;20028;-82
2022/03/27 00:48:35;;;;;;;20.48;11.15;;;11.10;99.90;;;;;;5052783;28;20029;-81
2022/03/27 00:51:01;;;;;;;17.20;10.48;;;11.10;99.90;;;;;;5054226;28;20032;-84
2022/03/27 00:53:27;;;;;;;17.98;11.48;;;11.20;99.90;;;;;;5054717;28;20033;-88
2022/03/27 00:55:53;;;;;;;18.52;10.77;;;11.30;99.90;;;;;;5053185;28;20469;-84
2022/03/27 00:58:19;;;;;;;20.50;11.18;;;11.30;99.90;;;;;;5053265;28;20025;-87
2022/03/27 01:00:47;;;;;;;21.02;12.20;;;11.30;99.90;;;;;;5054555;28;20078;-88
2022/03/27 01:03:21;;;;;;;21.30;11.52;;;11.40;99.90;;;;;;5052968;28;20126;-88
2022/03/27 01:05:48;;;;;;;19.58;11.45;;;11.40;99.90;;;;;;5053380;28;20143;-87
2022/03/27 01:08:15;;;;;;;22.60;11.88;;;11.20;99.90;;;;;;5054036;28;20060;-88
2022/03/27 01:10:42;;;;;;;50.58;16.23;;;11.20;99.90;;;;;;5054158;28;20027;-75
2022/03/27 01:13:19;;;;;;;42.15;16.17;;;11.20;99.90;;;;;;5045346;28;20539;-88
2022/03/27 01:15:57;;;;;;;35.65;14.70;;;11.00;99.90;;;;;;5034260;28;20045;-87
2022/03/27 01:18:23;;;;;;;28.88;13.35;;;11.20;99.90;;;;;;5033956;28;20111;-84
2022/03/27 01:20:49;;;;;;;21.13;12.50;;;11.30;99.90;;;;;;5034252;28;20033;-88
2022/03/27 01:23:16;;;;;;;27.50;12.85;;;11.20;99.90;;;;;;5034001;28;20025;-87
2022/03/27 01:25:44;;;;;;;24.88;13.32;;;11.30;99.90;;;;;;5033380;28;20065;-85
2022/03/27 01:28:12;;;;;;;36.35;14.45;;;11.30;99.90;;;;;;5033122;28;20052;-87
2022/03/27 01:30:39;;;;;;;33.22;14.68;;;11.30;99.90;;;;;;5032084;28;20125;-87
2022/03/27 01:33:05;;;;;;;30.50;13.88;;;11.40;99.90;;;;;;5032727;28;20029;-87
2022/03/27 01:35:32;;;;;;;35.13;14.43;;;11.30;99.90;;;;;;5032973;28;20500;-87
2022/03/27 01:37:58;;;;;;;32.22;14.38;;;11.20;99.90;;;;;;5015366;28;20117;-87
2022/03/27 01:40:24;;;;;;;35.55;13.43;;;11.20;99.90;;;;;;5032879;28;20087;-88
2022/03/27 01:42:53;;;;;;;27.10;13.60;;;11.00;99.90;;;;;;5032947;28;20029;-88
2022/03/27 01:45:19;;;;;;;27.38;13.88;;;11.00;99.90;;;;;;5033040;28;20027;-88
2022/03/27 01:47:45;;;;;;;28.63;13.60;;;10.90;99.90;;;;;;5031220;28;20108;-82
2022/03/27 01:50:11;;;;;;;26.00;14.38;;;10.90;99.90;;;;;;5031980;28;20022;-87
2022/03/27 01:52:37;;;;;;;30.30;13.15;;;11.00;99.90;;;;;;5041237;28;20117;-87
2022/03/27 01:55:06;;;;;;;29.83;13.57;;;10.80;99.90;;;;;;5051307;28;20126;-87
2022/03/27 01:57:32;;;;;;;23.95;14.60;;;10.70;99.90;;;;;;5051103;28;20043;-87
2022/03/27 01:59:58;;;;;;;26.55;15.50;;;10.90;99.90;;;;;;5035614;28;20037;-87
2022/03/27 02:02:24;;;;;;;24.60;14.63;;;10.80;99.90;;;;;;5045841;28;20067;-87
2022/03/27 02:04:53;;;;;;;26.55;13.63;;;10.50;99.90;;;;;;5052349;28;20445;-87
2022/03/27 02:07:22;;;;;;;26.48;14.48;;;10.60;99.90;;;;;;5045140;28;20029;-86
2022/03/27 02:09:50;;;;;;;31.38;16.48;;;10.50;99.90;;;;;;5031373;28;20112;-86
2022/03/27 02:12:16;;;;;;;30.65;15.48;;;10.50;99.90;;;;;;5031297;28;20097;-87
2022/03/27 02:14:42;;;;;;;25.65;16.10;;;10.40;99.90;;;;;;5032449;28;20206;-83
2022/03/27 02:17:08;;;;;;;26.67;14.73;;;10.50;99.90;;;;;;5032497;28;20029;-86
2022/03/27 02:19:35;;;;;;;24.65;13.98;;;10.50;99.90;;;;;;5039754;28;20140;-87
2022/03/27 02:22:02;;;;;;;23.48;14.07;;;10.50;99.90;;;;;;5032321;28;20017;-87
2022/03/27 02:24:28;;;;;;;26.20;14.50;;;10.40;99.90;;;;;;4994666;28;1077603;-87
2022/03/27 02:26:54;;;;;;;21.58;14.68;;;10.50;99.90;;;;;;5033077;28;20033;-86
2022/03/27 02:29:20;;;;;;;25.67;13.95;;;10.40;99.90;;;;;;5031666;28;20037;-86
2022/03/27 02:31:47;;;;;;;24.33;13.88;;;10.40;99.90;;;;;;5032801;28;20034;-87
2022/03/27 02:34:14;;;;;;;23.70;14.57;;;10.30;99.90;;;;;;5033005;28;20036;-87
2022/03/27 02:36:40;;;;;;;23.27;14.98;;;10.40;99.90;;;;;;5033096;28;20040;-86
2022/03/27 02:39:06;;;;;;;23.80;14.52;;;10.30;99.90;;;;;;5032922;28;20026;-88
2022/03/27 02:41:32;;;;;;;23.23;13.73;;;10.20;99.90;;;;;;5033033;28;20419;-88
2022/03/27 02:43:58;;;;;;;25.88;15.27;;;10.20;99.90;;;;;;5032863;28;20090;-86
2022/03/27 02:46:24;;;;;;;26.90;16.23;;;10.10;99.90;;;;;;5033572;28;20034;-86
2022/03/27 02:48:49;;;;;;;23.33;15.45;;;10.20;99.90;;;;;;5052752;28;20079;-86
2022/03/27 02:51:16;;;;;;;25.48;15.82;;;10.20;99.90;;;;;;5052803;28;20025;-87
2022/03/27 02:53:42;;;;;;;27.30;15.25;;;10.20;99.90;;;;;;5052448;28;20111;-85
2022/03/27 02:56:08;;;;;;;24.92;15.85;;;10.20;99.90;;;;;;5052571;28;20451;-85
2022/03/27 02:58:35;;;;;;;27.67;16.08;;;10.20;99.90;;;;;;5052716;28;20049;-87
2022/03/27 03:01:02;;;;;;;25.90;16.52;;;10.20;99.90;;;;;;5052702;28;20462;-85
2022/03/27 03:03:28;;;;;;;27.13;17.13;;;10.10;99.90;;;;;;5041244;28;20021;-86
2022/03/27 03:05:55;;;;;;;29.48;16.70;;;10.00;99.90;;;;;;5035378;28;20040;-86
2022/03/27 03:08:21;;;;;;;24.65;17.75;;;10.20;99.90;;;;;;5036775;28;20028;-85
2022/03/27 03:10:47;;;;;;;29.70;18.35;;;10.10;99.90;;;;;;5036630;28;20033;-87
2022/03/27 03:13:12;;;;;;;25.73;18.60;;;9.80;99.90;;;;;;5036576;28;20045;-86
2022/03/27 03:15:40;;;;;;;29.63;19.67;;;9.80;99.90;;;;;;5036341;28;20029;-86
2022/03/27 03:18:08;;;;;;;30.30;20.92;;;9.80;99.90;;;;;;5036550;28;20091;-87
2022/03/27 03:20:34;;;;;;;33.67;22.17;;;9.70;99.90;;;;;;5036480;28;20136;-87
2022/03/27 03:23:00;;;;;;;34.90;23.45;;;9.80;99.90;;;;;;5036565;28;20044;-87
2022/03/27 03:25:26;;;;;;;39.35;24.77;;;9.80;99.90;;;;;;5036319;28;20033;-86
2022/03/27 03:27:52;;;;;;;36.22;23.70;;;9.90;99.90;;;;;;5036231;28;20045;-76
2022/03/27 03:30:18;;;;;;;41.90;25.42;;;10.10;99.90;;;;;;5034770;28;20033;-85
2022/03/27 03:32:45;;;;;;;41.17;26.30;;;10.10;99.90;;;;;;5037658;28;20041;-87
2022/03/27 03:35:11;;;;;;;41.70;25.83;;;9.90;99.90;;;;;;5036746;28;20029;-86
2022/03/27 03:37:37;;;;;;;41.22;26.10;;;10.10;99.90;;;;;;5036055;28;20447;-86
2022/03/27 03:40:07;;;;;;;42.13;26.33;;;9.90;99.90;;;;;;5054916;28;20033;-74
2022/03/27 03:42:36;;;;;;;40.83;26.17;;;9.80;99.90;;;;;;5052754;28;20038;-78
2022/03/27 03:45:03;;;;;;;43.67;27.80;;;10.00;99.90;;;;;;5045436;28;20132;-86
2022/03/27 03:47:29;;;;;;;47.85;28.08;;;10.00;99.90;;;;;;5046111;28;20040;-82
2022/03/27 03:49:55;;;;;;;41.53;27.27;;;9.90;99.90;;;;;;5054603;28;20104;-85
2022/03/27 03:52:21;;;;;;;41.28;26.77;;;9.80;99.90;;;;;;5055871;28;20140;-84
2022/03/27 03:54:47;;;;;;;44.95;28.65;;;9.90;99.90;;;;;;5054660;28;20039;-85
2022/03/27 03:57:14;;;;;;;36.45;26.15;;;10.10;99.90;;;;;;5055379;28;20025;-81
2022/03/27 03:59:39;;;;;;;38.10;26.50;;;10.10;99.90;;;;;;5055574;28;20025;-83
2022/03/27 04:02:07;;;;;;;41.55;27.55;;;10.10;99.90;;;;;;5051148;28;20025;-86
2022/03/27 04:04:34;;;;;;;39.10;26.67;;;10.10;99.90;;;;;;5035696;28;20025;-80
2022/03/27 04:07:01;;;;;;;38.72;25.35;;;10.20;99.90;;;;;;5035582;28;20087;-86
2022/03/27 04:09:28;;;;;;;43.35;26.35;;;10.20;99.90;;;;;;5035578;28;20136;-86
2022/03/27 04:11:54;;;;;;;35.67;24.27;;;10.40;99.90;;;;;;5035165;28;20026;-74
2022/03/27 04:14:20;;;;;;;43.67;25.38;;;10.30;99.90;;;;;;5034029;28;20120;-81
2022/03/27 04:16:47;;;;;;;41.72;26.27;;;10.30;99.90;;;;;;5034131;28;20061;-83
2022/03/27 04:19:14;;;;;;;37.10;24.13;;;10.20;99.90;;;;;;5035131;28;20033;-85
2022/03/27 04:21:40;;;;;;;42.05;24.40;;;10.40;99.90;;;;;;5035487;28;20367;-85
2022/03/27 04:24:09;;;;;;;42.33;25.42;;;10.30;99.90;;;;;;5033990;28;20030;-86
2022/03/27 04:26:35;;;;;;;42.40;26.90;;;10.20;99.90;;;;;;5034862;28;20026;-77
2022/03/27 04:29:02;;;;;;;49.47;28.42;;;10.30;99.90;;;;;;5035013;28;20482;-84
2022/03/27 04:31:30;;;;;;;49.55;30.17;;;10.40;99.90;;;;;;5034091;28;20063;-85
2022/03/27 04:33:56;;;;;;;42.05;27.95;;;10.50;99.90;;;;;;5035016;28;20550;-84
2022/03/27 04:36:21;;;;;;;37.88;25.65;;;10.20;99.90;;;;;;5035070;28;20026;-85
2022/03/27 04:38:47;;;;;;;37.20;25.52;;;10.20;99.90;;;;;;5034975;28;20036;-81
2022/03/27 04:41:13;;;;;;;39.20;25.35;;;10.30;99.90;;;;;;5034662;28;20397;-76
2022/03/27 04:43:39;;;;;;;39.78;26.23;;;10.30;99.90;;;;;;5034938;28;20025;-74
2022/03/27 04:46:07;;;;;;;36.83;25.67;;;10.20;99.90;;;;;;5034745;28;20029;-70
2022/03/27 04:48:32;;;;;;;39.40;26.08;;;10.40;99.90;;;;;;5053707;28;20032;-75
2022/03/27 04:50:58;;;;;;;38.78;27.13;;;10.40;99.90;;;;;;5054637;28;20033;-76
2022/03/27 04:53:24;;;;;;;36.22;25.67;;;10.30;99.90;;;;;;5054377;28;20029;-77
2022/03/27 04:55:49;;;;;;;33.40;24.23;;;10.30;99.90;;;;;;5054773;28;20377;-80
2022/03/27 04:58:16;;;;;;;37.85;23.15;;;10.10;99.90;;;;;;5054465;28;20037;-77
2022/03/27 05:00:42;;;;;;;34.67;24.02;;;10.10;99.90;;;;;;5054722;28;20029;-69
2022/03/27 05:03:08;;;;;;;36.15;24.95;;;10.20;99.90;;;;;;5041388;28;20493;-72
2022/03/27 05:05:34;;;;;;;38.80;26.60;;;10.10;99.90;;;;;;5033168;28;20064;-69
2022/03/27 05:08:00;;;;;;;38.90;25.25;;;10.20;99.90;;;;;;5034409;28;20028;-85
2022/03/27 05:10:26;;;;;;;42.80;26.65;;;10.30;99.90;;;;;;5034211;28;20037;-86
2022/03/27 05:12:52;;;;;;;36.92;25.63;;;10.30;99.90;;;;;;5033174;28;20539;-86
2022/03/27 05:15:18;;;;;;;39.67;26.75;;;10.30;99.90;;;;;;5034319;28;20128;-85
2022/03/27 05:17:56;;;;;;;37.85;25.95;;;10.10;99.90;;;;;;5033222;28;20026;-84
2022/03/27 05:20:27;;;;;;;34.80;24.95;;;10.30;99.90;;;;;;5034216;28;20060;-84
2022/03/27 05:22:54;;;;;;;42.58;24.83;;;10.30;99.90;;;;;;5058020;28;20036;-85
2022/03/27 05:25:20;;;;;;;34.47;22.80;;;10.50;99.90;;;;;;5072728;28;20039;-86
2022/03/27 05:27:48;;;;;;;34.53;24.55;;;10.40;99.90;;;;;;5074109;28;20110;-85
2022/03/27 05:30:21;;;;;;;33.28;23.77;;;10.30;99.90;;;;;;5073964;28;20183;-86
2022/03/27 05:32:48;;;;;;;39.55;26.35;;;10.30;99.90;;;;;;5073881;28;20103;-75
2022/03/27 05:35:15;;;;;;;35.65;24.90;;;10.40;99.90;;;;;;5073628;28;20032;-78
2022/03/27 05:37:43;;;;;;;39.13;27.98;;;10.50;99.90;;;;;;5072631;28;20025;-78
2022/03/27 05:40:11;;;;;;;41.17;27.23;;;10.60;99.90;;;;;;5073403;28;20024;-80
2022/03/27 05:42:36;;;;;;;39.17;26.25;;;10.50;99.90;;;;;;5073862;28;20465;-76
2022/03/27 05:45:04;;;;;;;35.20;28.23;;;10.50;99.90;;;;;;5072317;28;20031;-78
2022/03/27 05:47:29;;;;;;;39.08;26.33;;;10.60;99.90;;;;;;5063085;28;20083;-75
2022/03/27 05:49:56;;;;;;;36.90;28.13;;;10.50;99.90;;;;;;5053552;28;20025;-81
2022/03/27 05:52:23;;;;;;;38.63;27.60;;;10.70;99.90;;;;;;5053545;28;20114;-81
2022/03/27 05:54:49;;;;;;;37.97;25.25;;;10.60;99.90;;;;;;5052164;28;20036;-75
2022/03/27 05:57:17;;;;;;;34.58;25.17;;;10.60;99.90;;;;;;5053727;28;20041;-74
2022/03/27 05:59:46;;;;;;;35.03;25.13;;;10.40;99.90;;;;;;5053867;28;20029;-78
2022/03/27 06:02:13;;;;;;;39.75;25.83;;;10.40;99.90;;;;;;5053304;28;20035;-83
2022/03/27 06:04:40;;;;;;;33.35;24.48;;;10.60;99.90;;;;;;5053420;28;20029;-77
2022/03/27 06:07:05;;;;;;;37.53;24.70;;;10.60;99.90;;;;;;5052224;28;20032;-73
2022/03/27 06:09:32;;;;;;;32.25;23.75;;;10.60;99.90;;;;;;5053048;28;20025;-70
2022/03/27 06:11:58;;;;;;;32.72;24.98;;;10.60;99.90;;;;;;5052074;28;20033;-70
2022/03/27 06:14:25;;;;;;;35.50;25.10;;;10.60;99.90;;;;;;5053203;28;20052;-69
2022/03/27 06:16:51;;;;;;;32.42;24.75;;;10.60;99.90;;;;;;5053982;28;20127;-86
2022/03/27 06:19:17;;;;;;;33.83;25.25;;;10.70;99.90;;;;;;5053347;28;20033;-85
2022/03/27 06:21:45;;;;;;;33.03;25.63;;;10.80;99.90;;;;;;5053284;28;20035;-85
2022/03/27 06:24:12;;;;;;;36.15;26.73;;;11.10;99.90;;;;;;5051636;28;20033;-84
2022/03/27 06:26:42;;;;;;;37.28;26.33;;;11.20;99.90;;;;;;5052898;28;20485;-84
2022/03/27 06:29:09;;;;;;;31.58;22.35;;;10.80;99.90;;;;;;5053182;28;20079;-77
2022/03/27 06:31:35;;;;;;;40.60;22.58;;;10.60;99.90;;;;;;5052953;28;20074;-85
2022/03/27 06:34:01;;;;;;;34.08;22.20;;;10.60;99.90;;;;;;5052812;28;20036;-84
2022/03/27 06:36:27;;;;;;;33.40;21.67;;;10.40;99.90;;;;;;5052675;28;20384;-85
2022/03/27 06:38:53;;;;;;;29.40;20.65;;;10.50;99.90;;;;;;5052660;28;20025;-82
2022/03/27 06:41:19;;;;;;;30.17;21.00;;;10.50;99.90;;;;;;5051391;28;20029;-83
2022/03/27 06:43:44;;;;;;;29.95;22.25;;;10.60;99.90;;;;;;5052719;28;20036;-84
2022/03/27 06:46:15;;;;;;;31.58;21.60;;;10.80;99.90;;;;;;5052495;28;20066;-83
2022/03/27 06:48:41;;;;;;;33.85;22.33;;;11.10;99.90;;;;;;5033187;28;20037;-85
2022/03/27 06:51:06;;;;;;;36.72;23.30;;;11.30;99.90;;;;;;5032906;28;20018;-85
2022/03/27 06:53:32;;;;;;;35.72;24.33;;;11.50;99.90;;;;;;5032419;28;20040;-86
2022/03/27 06:55:58;;;;;;;33.17;23.02;;;11.60;99.90;;;;;;5032677;28;20415;-88
2022/03/27 06:58:24;;;;;;;33.35;23.13;;;11.40;99.90;;;;;;5032687;28;20547;-88
2022/03/27 07:03:34;;;;;;;38.33;24.70;;;11.30;99.90;;;;;;5047632;28;20036;-84
2022/03/27 07:06:00;;;;;;;38.97;26.70;;;11.30;99.90;;;;;;5051118;28;20028;-86
2022/03/27 07:08:25;;;;;;;39.75;25.25;;;11.30;99.90;;;;;;5052665;28;20029;-87
2022/03/27 07:10:51;;;;;;;33.50;24.65;;;11.50;99.90;;;;;;5050994;28;20488;-87
2022/03/27 07:13:19;;;;;;;34.45;24.15;;;11.60;99.90;;;;;;5050950;28;20398;-87
2022/03/27 07:15:46;;;;;;;32.05;24.77;;;11.50;99.90;;;;;;5031926;28;20032;-87
2022/03/27 07:18:13;;;;;;;24.63;18.83;;;11.40;99.90;;;;;;5032923;28;20052;-88
2022/03/27 07:20:41;;;;;;;21.33;16.00;;;11.50;99.90;;;;;;5031181;28;20025;-88
2022/03/27 07:23:09;;;;;;;20.80;16.48;;;11.80;99.90;;;;;;5044835;28;20538;-85
2022/03/27 07:25:39;;;;;;;23.52;17.30;;;11.80;99.90;;;;;;5050099;28;20041;-88
2022/03/27 07:28:06;;;;;;;35.15;19.35;;;11.70;99.90;;;;;;5049854;28;20385;-88
2022/03/27 07:30:35;;;;;;;32.20;19.95;;;11.70;99.90;;;;;;5050490;28;20040;-87
2022/03/27 07:33:02;;;;;;;32.28;19.77;;;11.70;99.90;;;;;;5050502;28;20099;-83
2022/03/27 07:35:30;;;;;;;40.15;19.75;;;11.60;99.90;;;;;;5050199;28;20029;-87
2022/03/27 07:37:56;;;;;;;40.35;21.50;;;11.60;99.90;;;;;;5050234;28;20032;-88
2022/03/27 07:40:22;;;;;;;25.90;18.83;;;11.60;99.90;;;;;;5047465;28;20494;-86
2022/03/27 07:42:50;;;;;;;26.63;20.77;;;11.50;99.90;;;;;;5029373;28;20022;-88
2022/03/27 07:45:21;;;;;;;24.38;19.10;;;11.10;99.90;;;;;;5030546;28;20041;-84
2022/03/27 07:47:48;;;;;;;26.52;20.75;;;10.80;99.90;;;;;;5034245;28;20103;-89
2022/03/27 07:50:15;;;;;;;27.75;21.85;;;11.10;99.90;;;;;;5034113;28;20041;-89
2022/03/27 07:52:41;;;;;;;26.30;20.63;;;11.30;99.90;;;;;;5035380;28;20038;-89
2022/03/27 07:55:09;;;;;;;24.13;19.23;;;11.30;99.90;;;;;;5034395;28;20037;-88
2022/03/27 07:57:35;;;;;;;33.00;25.05;;;11.50;99.90;;;;;;5034181;28;20026;-88
2022/03/27 08:00:02;;;;;;;39.90;23.45;;;11.60;99.90;;;;;;5033950;28;20444;-88
2022/03/27 08:02:39;;;;;;;40.80;23.08;;;11.80;99.90;;;;;;5042471;28;20029;-86
2022/03/27 08:05:06;;;;;;;57.50;28.35;;;12.00;99.90;;;;;;5053121;28;20102;-87
2022/03/27 08:07:32;;;;;;;40.95;23.10;;;12.10;99.90;;;;;;5043458;28;20032;-88
2022/03/27 08:09:58;;;;;;;38.58;25.05;;;11.90;99.90;;;;;;5035306;28;20039;-87
2022/03/27 08:12:24;;;;;;;29.77;21.30;;;11.70;99.90;;;;;;5034046;28;20021;-86
2022/03/27 08:14:50;;;;;;;30.27;21.50;;;11.70;99.90;;;;;;5033906;28;20056;-86
2022/03/27 08:17:17;;;;;;;27.50;20.45;;;11.60;99.90;;;;;;5033353;28;20466;-86
2022/03/27 08:19:44;;;;;;;35.38;20.45;;;11.60;99.90;;;;;;5035266;28;20100;-87
2022/03/27 08:22:10;;;;;;;37.78;20.33;;;11.80;99.90;;;;;;5034961;28;20429;-85
2022/03/27 08:24:36;;;;;;;38.45;20.15;;;11.80;99.90;;;;;;5032809;28;20477;-86
2022/03/27 08:27:04;;;;;;;44.28;22.05;;;11.50;99.90;;;;;;5033244;28;20061;-87
2022/03/27 08:29:37;;;;;;;49.60;23.00;;;11.60;99.90;;;;;;5034783;28;20029;-87
2022/03/27 08:32:06;;;;;;;35.83;22.30;;;11.80;99.90;;;;;;5043969;28;20115;-88
2022/03/27 08:34:35;;;;;;;29.95;21.58;;;11.90;99.90;;;;;;5054595;28;20553;-87
2022/03/27 08:37:02;;;;;;;29.55;22.30;;;12.00;99.90;;;;;;5056110;28;20025;-87
2022/03/27 08:39:29;;;;;;;28.75;21.25;;;11.70;99.90;;;;;;5054229;28;20025;-85
2022/03/27 08:41:56;;;;;;;34.55;23.38;;;12.10;99.90;;;;;;5054696;28;20021;-87
2022/03/27 08:44:24;;;;;;;36.63;24.50;;;12.20;99.90;;;;;;5055233;28;20191;-76
2022/03/27 08:46:51;;;;;;;39.58;26.00;;;12.10;99.90;;;;;;5053187;28;20017;-88
2022/03/27 08:49:17;;;;;;;39.17;25.58;;;12.00;99.90;;;;;;5053836;28;20032;-87
2022/03/27 08:52:01;;;;;;;37.25;24.60;;;12.10;99.90;;;;;;5054526;28;20087;-89
2022/03/27 08:54:41;;;;;;;39.40;24.40;;;12.40;99.90;;;;;;5054779;28;20047;-87
2022/03/27 08:57:37;;;;;;;37.10;24.48;;;12.40;99.90;;;;;;5053362;28;20067;-87
2022/03/27 09:00:04;;;;;;;34.38;23.60;;;12.40;99.90;;;;;;5051583;28;20500;-86
2022/03/27 09:02:30;;;;;;;30.52;21.58;;;12.40;99.90;;;;;;5046050;28;20053;-84
2022/03/27 09:04:57;;;;;;;29.38;21.13;;;12.00;99.90;;;;;;5035482;28;20052;-86
2022/03/27 09:07:24;;;;;;;34.42;23.17;;;11.90;99.90;;;;;;5053818;28;20496;-87
2022/03/27 09:09:51;;;;;;;45.88;25.20;;;12.10;99.90;;;;;;5054215;28;20049;-86
2022/03/27 09:12:19;;;;;;;37.55;25.70;;;12.50;99.90;;;;;;5054076;28;20024;-87
2022/03/27 09:14:45;;;;;;;32.58;23.25;;;12.90;99.90;;;;;;5052988;28;20033;-87
2022/03/27 09:17:11;;;;;;;28.23;19.92;;;12.40;99.90;;;;;;5053222;28;20381;-87
2022/03/27 09:19:39;;;;;;;33.30;21.00;;;12.40;99.90;;;;;;5052013;28;20033;-87
2022/03/27 09:22:34;;;;;;;29.52;21.27;;;12.20;99.90;;;;;;5051932;28;20017;-83
2022/03/27 09:25:03;;;;;;;31.38;21.58;;;12.30;99.90;;;;;;5051432;28;20041;-83
2022/03/27 09:27:30;;;;;;;28.35;20.85;;;12.60;99.90;;;;;;5043520;28;20420;-81
2022/03/27 09:29:58;;;;;;;31.75;20.77;;;12.50;99.90;;;;;;5048337;28;20025;-82
2022/03/27 09:32:32;;;;;;;30.63;21.80;;;13.00;99.90;;;;;;5031653;28;20136;-85
2022/03/27 09:35:01;;;;;;;26.45;20.90;;;13.30;99.90;;;;;;5030218;28;20029;-84
2022/03/27 09:37:31;;;;;;;34.88;19.90;;;13.10;99.90;;;;;;5032350;28;20079;-85
2022/03/27 09:39:58;;;;;;;28.67;20.48;;;12.90;99.90;;;;;;5031409;28;20037;-84
2022/03/27 09:42:24;;;;;;;32.42;20.13;;;13.10;99.90;;;;;;5031841;28;20018;-85
2022/03/27 09:45:09;;;;;;;43.20;25.25;;;13.30;99.90;;;;;;5031856;28;20033;-85
2022/03/27 09:47:35;;;;;;;34.13;22.85;;;13.40;99.90;;;;;;5040898;28;20044;-86
2022/03/27 09:50:01;;;;;;;36.40;25.90;;;13.10;99.90;;;;;;5032519;28;20482;-84
2022/03/27 09:52:27;;;;;;;39.38;27.20;;;13.20;99.90;;;;;;5032360;28;20022;-79
2022/03/27 09:54:54;;;;;;;43.88;26.45;;;13.30;99.90;;;;;;5036504;28;20577;-77
2022/03/27 09:57:34;;;;;;;30.70;23.48;;;13.10;99.90;;;;;;5031151;28;20029;-84
2022/03/27 10:00:16;;;;;;;33.33;23.15;;;12.50;99.90;;;;;;5035831;28;20056;-83
2022/03/27 10:02:44;;;;;;;25.38;20.02;;;12.60;99.90;;;;;;5043004;28;20116;-80
2022/03/27 10:05:16;;;;;;;25.00;18.60;;;12.60;99.90;;;;;;5032758;28;20389;-86
2022/03/27 10:07:44;;;;;;;28.90;19.13;;;12.70;99.90;;;;;;5032906;28;20028;-78
2022/03/27 10:10:28;;;;;;;28.00;18.92;;;13.00;99.90;;;;;;5031161;28;20029;-81
2022/03/27 10:12:57;;;;;;;23.88;18.05;;;13.10;99.90;;;;;;5050586;28;20017;-84
2022/03/27 10:15:29;;;;;;;21.90;16.50;;;12.90;99.90;;;;;;5051596;28;20155;-84
2022/03/27 10:18:13;;;;;;;25.17;16.00;;;12.80;99.90;;;;;;5046507;28;20040;-76
2022/03/27 10:20:40;;;;;;;22.85;17.48;;;12.80;99.90;;;;;;5032901;28;20038;-76
2022/03/27 10:23:20;;;;;;;22.88;17.17;;;13.00;99.90;;;;;;5032779;28;20017;-74
2022/03/27 10:26:01;;;;;;;23.20;18.00;;;13.00;99.90;;;;;;5032512;28;20044;-75
2022/03/27 10:28:28;;;;;;;24.00;18.00;;;12.60;99.90;;;;;;5032649;28;20044;-73
2022/03/27 10:30:54;;;;;;;23.60;18.13;;;12.60;99.90;;;;;;5032351;28;20025;-76
2022/03/27 10:33:24;;;;;;;21.95;17.25;;;12.70;99.90;;;;;;5032673;28;20051;-72
2022/03/27 10:36:08;;;;;;;21.85;17.48;;;12.70;99.90;;;;;;5032372;28;20037;-70
2022/03/27 10:38:45;;;;;;;22.63;17.73;;;12.70;99.90;;;;;;5032665;28;20048;-81
2022/03/27 10:41:13;;;;;;;26.38;19.55;;;12.70;99.90;;;;;;5031343;28;20144;-76
2022/03/27 10:43:57;;;;;;;26.50;19.15;;;12.90;99.90;;;;;;5031194;28;20059;-78
2022/03/27 10:46:25;;;;;;;23.20;18.50;;;13.00;99.90;;;;;;5033667;28;20070;-81
2022/03/27 10:48:53;;;;;;;20.90;17.77;;;12.60;99.90;;;;;;5030913;28;20092;-79
2022/03/27 10:51:25;;;;;;;24.42;17.88;;;12.50;99.90;;;;;;5032273;28;20105;-77
2022/03/27 10:54:05;;;;;;;;;;;12.50;99.90;;;;;;5031709;28;20080;-77
2022/03/27 10:56:37;;;;;;;22.10;16.83;;;12.50;99.90;;;;;;5039669;28;19920;-75
2022/03/27 10:59:24;;;;;;;24.10;17.35;;;12.40;99.90;;;;;;5032341;28;20045;-74
2022/03/27 11:02:01;;;;;;;21.75;17.42;;;12.50;99.90;;;;;;5034372;28;20029;-80
2022/03/27 11:04:38;;;;;;;20.92;16.73;;;12.80;99.90;;;;;;5051937;28;20079;-82
2022/03/27 11:07:16;;;;;;;22.50;17.45;;;12.80;99.90;;;;;;5052065;28;20075;-79
2022/03/27 11:09:46;;;;;;;23.67;17.92;;;12.80;99.90;;;;;;5047647;28;20509;-76
2022/03/27 11:12:24;;;;;;;26.35;18.92;;;12.90;99.90;;;;;;5033463;28;20033;-77
2022/03/27 11:14:54;;;;;;;25.30;19.25;;;12.90;99.90;;;;;;5033222;28;20041;-75
2022/03/27 11:17:42;;;;;;;24.92;19.02;;;13.00;99.90;;;;;;5041859;28;20033;-85
2022/03/27 11:20:17;;;;;;;26.33;19.70;;;13.10;99.90;;;;;;5041641;28;20542;-85
2022/03/27 11:22:51;;;;;;;29.60;20.90;;;13.10;99.90;;;;;;5051155;28;20033;-86
2022/03/27 11:25:35;;;;;;;38.53;19.52;;;12.90;99.90;;;;;;5055213;28;20119;-83
2022/03/27 11:28:06;;;;;;;24.65;19.85;;;13.30;99.90;;;;;;5038265;28;20038;-80
2022/03/27 11:30:34;;;;;;;23.13;18.83;;;13.60;99.90;;;;;;5036573;28;20043;-73
2022/03/27 11:33:13;;;;;;;24.13;17.15;;;13.70;99.90;;;;;;5034953;28;20022;-74
2022/03/27 11:36:04;;;;;;;23.63;17.95;;;14.30;99.90;;;;;;5035728;28;20044;-72
2022/03/27 11:38:33;;;;;;;23.15;19.33;;;14.40;99.90;;;;;;5048083;28;20045;-83
2022/03/27 11:41:25;;;;;;;22.30;18.23;;;14.00;99.90;;;;;;5049103;28;20406;-77
2022/03/27 11:43:53;;;;;;;26.17;18.50;;;13.90;99.90;;;;;;5046671;28;20037;-79
2022/03/27 11:46:25;;;;;;;27.40;18.90;;;14.10;99.90;;;;;;5048467;28;20022;-84
2022/03/27 11:48:58;;;;;;;23.20;17.63;;;14.30;99.90;;;;;;5047209;28;20090;-81
2022/03/27 11:51:25;;;;;;;17.23;14.88;;;14.70;99.90;;;;;;5042172;28;20045;-83
2022/03/27 11:53:55;;;;;;;22.10;17.10;;;14.80;99.90;;;;;;5048782;28;20047;-83
2022/03/27 11:56:24;;;;;;;25.27;16.55;;;15.30;99.90;;;;;;5046182;28;20041;-79
2022/03/27 11:59:08;;;;;;;22.58;17.50;;;15.20;99.90;;;;;;5047540;28;20024;-84
2022/03/27 12:01:36;;;;;;;23.45;17.45;;;15.60;99.90;;;;;;5046918;28;20113;-86
2022/03/27 12:04:06;;;;;;;21.83;17.52;;;15.90;99.90;;;;;;5047851;28;20591;-82
2022/03/27 12:06:32;;;;;;;23.80;18.85;;;15.80;99.90;;;;;;5046687;28;20065;-83
2022/03/27 12:08:58;;;;;;;25.73;20.33;;;15.90;99.90;;;;;;5046246;28;20052;-84
2022/03/27 12:11:26;;;;;;;24.15;17.45;;;15.80;99.90;;;;;;5038211;28;20029;-82
2022/03/27 12:13:53;;;;;;;22.52;17.65;;;16.10;99.90;;;;;;5048382;28;20114;-83
2022/03/27 12:16:21;;;;;;;26.45;19.38;;;16.10;99.90;;;;;;5045184;28;20029;-79
2022/03/27 12:18:50;;;;;;;23.40;19.60;;;16.00;99.90;;;;;;5042990;28;20021;-83
2022/03/27 12:21:23;;;;;;;26.58;21.30;;;16.30;99.90;;;;;;5042278;28;20037;-78
2022/03/27 12:23:55;;;;;;;31.27;21.58;;;16.20;99.90;;;;;;5044126;28;20021;-83
2022/03/27 12:32:06;;;;;;;21.63;19.23;;;17.20;99.90;;;;;;5034910;28;20033;-83
2022/03/27 12:34:33;;;;;;;25.40;19.60;;;18.10;99.90;;;;;;5033937;28;20405;-78
2022/03/27 12:37:14;;;;;;;29.85;21.38;;;17.60;99.90;;;;;;5032752;28;20489;-82
2022/03/27 12:39:48;;;;;;;21.75;18.73;;;16.70;99.90;;;;;;5034678;28;20040;-82
2022/03/27 12:42:34;;;;;;;26.92;18.95;;;17.50;99.90;;;;;;5043217;28;20377;-82
2022/03/27 12:45:17;;;;;;;23.90;19.55;;;18.60;99.90;;;;;;5037380;28;20037;-75